createdAt,value
2023-05-04T00:00:25.534Z,20.27
2023-05-04T00:02:52.747Z,14.30
2023-05-04T00:05:19.869Z,15.05
2023-05-04T00:07:46.803Z,15.10
2023-05-04T00:10:15.062Z,12.00
2023-05-04T00:12:42.496Z,17.25
2023-05-04T00:15:09.714Z,18.55
2023-05-04T00:17:36.618Z,15.30
2023-05-04T00:20:04.337Z,12.05
2023-05-04T00:22:31.282Z,12.40
2023-05-04T00:24:58.120Z,16.58
2023-05-04T00:27:26.450Z,20.98
2023-05-04T00:29:53.266Z,12.60
2023-05-04T00:32:20.196Z,17.98
2023-05-04T00:34:47.026Z,16.58
2023-05-04T00:37:13.847Z,13.38
2023-05-04T00:39:40.736Z,15.40
2023-05-04T00:42:07.695Z,13.18
2023-05-04T00:44:35.960Z,13.75
2023-05-04T00:47:03.923Z,16.55
2023-05-04T00:49:30.980Z,15.02
2023-05-04T00:51:58.746Z,15.43
2023-05-04T00:54:25.981Z,12.10
2023-05-04T00:56:53.334Z,14.65
2023-05-04T00:59:20.285Z,18.08
2023-05-04T01:01:48.615Z,17.38
2023-05-04T01:04:16.226Z,15.35
2023-05-04T01:06:48.070Z,16.83
2023-05-04T01:09:22.557Z,21.60
2023-05-04T01:11:56.104Z,18.63
2023-05-04T01:14:23.013Z,13.00
2023-05-04T01:16:56.464Z,17.88
2023-05-04T01:19:23.446Z,17.35
2023-05-04T01:21:51.744Z,16.15
2023-05-04T01:24:19.296Z,19.77
2023-05-04T01:26:48.720Z,21.48
2023-05-04T01:29:18.345Z,22.92
2023-05-04T01:31:46.661Z,13.57
2023-05-04T01:34:14.182Z,17.73
2023-05-04T01:36:41.726Z,12.25
2023-05-04T01:39:10.279Z,16.25
2023-05-04T01:41:37.178Z,29.20
2023-05-04T01:44:04.881Z,26.08
2023-05-04T01:46:31.897Z,19.33
2023-05-04T01:48:58.804Z,17.40
2023-05-04T01:51:25.801Z,18.98
2023-05-04T01:53:52.680Z,17.27
2023-05-04T01:56:21.945Z,16.00
2023-05-04T01:58:48.891Z,20.85
2023-05-04T02:01:15.781Z,19.73
2023-05-04T02:03:42.777Z,27.58
2023-05-04T02:06:09.760Z,22.08
2023-05-04T02:08:36.756Z,19.63
2023-05-04T02:11:03.795Z,20.27
2023-05-04T02:13:32.049Z,19.52
2023-05-04T02:15:58.919Z,19.58
2023-05-04T02:18:25.765Z,16.45
2023-05-04T02:20:52.665Z,18.13
2023-05-04T02:23:19.462Z,18.85
2023-05-04T02:25:46.273Z,17.45
2023-05-04T02:28:13.104Z,24.58
2023-05-04T02:30:41.586Z,13.50
2023-05-04T02:33:08.967Z,19.17
2023-05-04T02:35:36.015Z,17.65
2023-05-04T02:38:02.901Z,18.77
2023-05-04T02:40:29.793Z,21.05
2023-05-04T02:42:57.169Z,20.13
2023-05-04T02:45:24.061Z,16.58
2023-05-04T02:47:52.347Z,17.13
2023-05-04T02:50:19.393Z,16.90
2023-05-04T02:52:46.306Z,20.63
2023-05-04T02:55:13.478Z,19.55
2023-05-04T02:57:40.304Z,19.30
2023-05-04T03:00:08.608Z,25.08
2023-05-04T03:02:35.500Z,22.67
2023-05-04T03:05:04.149Z,25.08
2023-05-04T03:07:31.660Z,18.52
2023-05-04T03:09:58.520Z,13.60
2023-05-04T03:12:25.351Z,22.13
2023-05-04T03:14:52.136Z,27.40
2023-05-04T03:17:19.061Z,15.82
2023-05-04T03:19:47.502Z,18.85
2023-05-04T03:22:15.704Z,19.00
2023-05-04T03:24:42.511Z,23.80
2023-05-04T03:27:09.400Z,20.60
2023-05-04T03:29:36.593Z,24.75
2023-05-04T03:32:03.536Z,27.30
2023-05-04T03:34:30.559Z,21.95
2023-05-04T03:36:57.956Z,18.88
2023-05-04T03:39:26.186Z,28.83
2023-05-04T03:41:53.065Z,20.83
2023-05-04T03:44:19.929Z,21.90
2023-05-04T03:46:46.963Z,28.25
2023-05-04T03:49:14.155Z,31.10
2023-05-04T03:51:41.072Z,18.08
2023-05-04T03:54:07.904Z,19.92
2023-05-04T03:56:36.125Z,34.53
2023-05-04T03:59:03.046Z,22.42
2023-05-04T04:01:29.919Z,23.83
2023-05-04T04:03:56.980Z,22.50
2023-05-04T04:06:24.098Z,20.15
2023-05-04T04:08:50.990Z,23.10
2023-05-04T04:11:17.810Z,25.40
2023-05-04T04:13:46.231Z,20.10
2023-05-04T04:16:13.280Z,25.80
2023-05-04T04:18:40.365Z,24.33
2023-05-04T04:21:07.326Z,27.05
2023-05-04T04:23:34.179Z,23.45
2023-05-04T04:26:01.582Z,18.83
2023-05-04T04:28:28.790Z,30.48
2023-05-04T04:30:57.222Z,27.45
2023-05-04T04:33:24.107Z,23.95
2023-05-04T04:35:51.043Z,25.88
2023-05-04T04:38:18.600Z,21.98
2023-05-04T04:40:45.770Z,19.58
2023-05-04T04:43:13.257Z,27.95
2023-05-04T04:45:41.357Z,21.85
2023-05-04T04:48:09.648Z,21.70
2023-05-04T04:50:38.657Z,25.77
2023-05-04T04:53:05.469Z,27.45
2023-05-04T04:55:32.641Z,23.95
2023-05-04T04:57:59.513Z,19.85
2023-05-04T05:00:26.666Z,20.15
2023-05-04T05:02:54.280Z,20.02
2023-05-04T05:05:22.785Z,30.80
2023-05-04T05:07:49.646Z,23.40
2023-05-04T05:10:17.014Z,23.10
2023-05-04T05:12:43.968Z,18.52
2023-05-04T05:15:11.571Z,23.23
2023-05-04T05:17:39.246Z,21.75
2023-05-04T05:20:10.718Z,22.20
2023-05-04T05:22:40.313Z,28.05
2023-05-04T05:25:08.456Z,20.60
2023-05-04T05:27:35.581Z,22.73
2023-05-04T05:30:03.446Z,25.42
2023-05-04T05:32:30.655Z,21.08
2023-05-04T05:34:57.660Z,27.30
2023-05-04T05:37:24.626Z,33.50
2023-05-04T05:39:52.928Z,16.63
2023-05-04T05:42:20.208Z,21.27
2023-05-04T05:44:47.452Z,22.10
2023-05-04T05:47:14.974Z,22.35
2023-05-04T05:49:43.078Z,22.65
2023-05-04T05:52:11.729Z,17.23
2023-05-04T05:54:38.670Z,22.25
2023-05-04T05:57:07.146Z,18.92
2023-05-04T05:59:34.072Z,23.10
2023-05-04T06:02:00.934Z,20.85
2023-05-04T06:04:27.748Z,24.52
2023-05-04T06:06:54.648Z,22.83
2023-05-04T06:09:21.540Z,28.50
2023-05-04T06:11:48.488Z,16.85
2023-05-04T06:14:16.744Z,22.05
2023-05-04T06:16:43.758Z,15.82
2023-05-04T06:19:10.823Z,17.40
2023-05-04T06:21:37.664Z,15.18
2023-05-04T06:24:05.244Z,17.80
2023-05-04T06:26:32.596Z,15.30
2023-05-04T06:28:59.600Z,19.88
2023-05-04T06:31:28.099Z,16.92
2023-05-04T06:33:54.926Z,18.55
2023-05-04T06:36:22.064Z,17.30
2023-05-04T06:38:48.874Z,15.40
2023-05-04T06:41:15.718Z,19.10
2023-05-04T06:43:42.766Z,28.17
2023-05-04T06:46:09.714Z,18.13
2023-05-04T06:48:38.014Z,19.83
2023-05-04T06:51:04.930Z,18.63
2023-05-04T06:53:32.054Z,18.90
2023-05-04T06:55:58.938Z,18.08
2023-05-04T06:58:26.087Z,16.45
2023-05-04T07:00:53.131Z,27.05
2023-05-04T07:03:20.201Z,18.20
2023-05-04T07:05:50.721Z,19.40
2023-05-04T07:08:17.857Z,35.25
2023-05-04T07:10:44.898Z,14.30
2023-05-04T07:13:11.884Z,19.27
2023-05-04T07:15:39.331Z,15.13
2023-05-04T07:18:06.227Z,19.15
2023-05-04T07:20:33.185Z,12.98
2023-05-04T07:23:01.525Z,19.52
2023-05-04T07:25:28.820Z,18.00
2023-05-04T07:27:55.795Z,12.77
2023-05-04T07:30:22.643Z,18.15
2023-05-04T07:32:49.560Z,16.02
2023-05-04T07:35:16.510Z,19.80
2023-05-04T07:37:43.440Z,13.15
2023-05-04T07:40:14.716Z,16.13
2023-05-04T07:42:42.169Z,19.27
2023-05-04T07:45:10.454Z,16.80
2023-05-04T07:47:37.482Z,13.20
2023-05-04T07:50:05.025Z,14.85
2023-05-04T07:52:32.199Z,18.63
2023-05-04T07:54:59.003Z,16.55
2023-05-04T07:57:27.456Z,17.20
2023-05-04T07:59:55.119Z,18.85
2023-05-04T08:02:22.187Z,13.18
2023-05-04T08:04:49.099Z,13.05
2023-05-04T08:07:17.145Z,14.98
2023-05-04T08:09:44.010Z,24.65
2023-05-04T08:12:12.428Z,13.57
2023-05-04T08:14:40.962Z,17.70
2023-05-04T08:17:07.776Z,13.00
2023-05-04T08:19:34.720Z,15.63
2023-05-04T08:22:01.642Z,14.75
2023-05-04T08:24:28.541Z,15.70
2023-05-04T08:27:07.092Z,14.65
2023-05-04T08:29:37.463Z,12.45
2023-05-04T08:32:06.387Z,11.70
2023-05-04T08:34:33.261Z,10.77
2023-05-04T08:37:00.247Z,16.05
2023-05-04T08:39:27.224Z,15.95
2023-05-04T08:41:54.214Z,16.08
2023-05-04T08:44:22.458Z,17.63
2023-05-04T08:46:54.179Z,12.45
2023-05-04T08:49:24.201Z,14.80
2023-05-04T08:51:51.936Z,11.55
2023-05-04T08:54:21.020Z,10.52
2023-05-04T08:56:47.952Z,14.30
2023-05-04T08:59:20.546Z,12.77
2023-05-04T09:01:52.220Z,19.73
2023-05-04T09:04:20.186Z,12.80
2023-05-04T09:06:48.655Z,13.75
2023-05-04T09:09:15.644Z,12.75
2023-05-04T09:11:43.473Z,14.40
2023-05-04T09:14:10.594Z,14.73
2023-05-04T09:16:37.966Z,11.43
2023-05-04T09:19:16.221Z,13.15
2023-05-04T09:21:44.096Z,11.95
2023-05-04T09:24:12.701Z,10.65
2023-05-04T09:26:39.610Z,14.20
2023-05-04T09:29:16.140Z,21.85
2023-05-04T09:31:44.850Z,10.55
2023-05-04T09:34:11.716Z,13.25
2023-05-04T09:36:38.568Z,12.95
2023-05-04T09:39:14.178Z,12.38
2023-05-04T09:41:42.056Z,16.55
2023-05-04T09:44:18.120Z,13.70
2023-05-04T09:46:53.493Z,17.27
2023-05-04T09:49:30.420Z,10.75
2023-05-04T09:51:58.904Z,13.00
2023-05-04T09:54:28.754Z,11.63
2023-05-04T09:57:04.478Z,11.40
2023-05-04T09:59:32.417Z,10.98
2023-05-04T10:02:04.868Z,13.82
2023-05-04T10:04:43.255Z,10.95
2023-05-04T10:07:10.099Z,12.15
2023-05-04T10:09:39.598Z,17.88
2023-05-04T10:12:07.108Z,12.02
2023-05-04T10:14:35.386Z,15.70
2023-05-04T10:17:07.767Z,11.60
2023-05-04T10:19:51.007Z,14.45
2023-05-04T10:22:33.456Z,15.75
2023-05-04T10:25:24.840Z,12.10
2023-05-04T10:28:01.765Z,11.25
2023-05-04T10:30:29.034Z,18.50
2023-05-04T10:32:57.329Z,11.00
2023-05-04T10:35:25.299Z,13.27
2023-05-04T10:37:54.585Z,12.13
2023-05-04T10:40:35.367Z,14.52
2023-05-04T10:43:02.296Z,13.15
2023-05-04T10:45:36.831Z,22.25
2023-05-04T10:48:05.158Z,11.77
2023-05-04T10:50:42.982Z,14.52
2023-05-04T10:53:09.987Z,17.63
2023-05-04T10:55:43.448Z,18.00
2023-05-04T11:00:39.886Z,15.45
2023-05-04T11:03:07.787Z,17.25
2023-05-04T11:05:42.946Z,16.42
2023-05-04T11:08:17.052Z,12.95
2023-05-04T11:10:46.851Z,13.73
2023-05-04T11:13:14.194Z,16.35
2023-05-04T11:15:45.100Z,15.18
2023-05-04T11:18:12.042Z,12.27
2023-05-04T11:20:39.240Z,13.02
2023-05-04T11:23:10.196Z,17.02
2023-05-04T11:25:37.691Z,15.32
2023-05-04T11:28:06.695Z,14.30
2023-05-04T11:30:35.240Z,20.73
2023-05-04T11:33:02.993Z,15.27
2023-05-04T11:35:30.094Z,15.27
2023-05-04T11:37:57.328Z,13.15
2023-05-04T11:40:25.784Z,16.15
2023-05-04T11:42:59.445Z,22.35
2023-05-04T11:45:30.900Z,12.93
2023-05-04T11:47:58.606Z,13.77
2023-05-04T11:50:27.148Z,11.45
2023-05-04T11:53:04.160Z,13.77
2023-05-04T11:55:31.661Z,19.55
2023-05-04T11:57:59.240Z,18.42
2023-05-04T12:00:39.429Z,12.05
2023-05-04T12:03:08.395Z,9.70
2023-05-04T12:05:36.440Z,10.68
2023-05-04T12:08:03.870Z,16.42
2023-05-04T12:10:33.570Z,14.85
2023-05-04T12:13:00.652Z,10.00
2023-05-04T12:15:29.355Z,11.73
2023-05-04T12:17:58.210Z,12.98
2023-05-04T12:20:28.327Z,9.65
2023-05-04T12:22:55.650Z,16.45
2023-05-04T12:25:24.396Z,12.98
2023-05-04T12:27:51.560Z,10.63
2023-05-04T12:30:18.592Z,13.00
2023-05-04T12:32:45.999Z,16.35
2023-05-04T12:35:14.343Z,10.55
2023-05-04T12:37:41.216Z,11.88
2023-05-04T12:40:20.875Z,14.43
2023-05-04T12:42:48.382Z,9.68
2023-05-04T12:45:16.410Z,11.77
2023-05-04T12:47:43.284Z,11.93
2023-05-04T12:50:10.789Z,14.05
2023-05-04T12:52:41.008Z,16.20
2023-05-04T12:55:08.762Z,11.90
2023-05-04T12:57:36.256Z,10.13
2023-05-04T13:00:04.153Z,10.15
2023-05-04T13:02:31.587Z,12.40
2023-05-04T13:04:58.488Z,9.07
2023-05-04T13:07:25.328Z,8.13
2023-05-04T13:09:53.698Z,11.30
2023-05-04T13:12:20.496Z,11.00
2023-05-04T13:14:47.600Z,8.82
2023-05-04T13:17:15.261Z,12.45
2023-05-04T13:19:42.112Z,7.38
2023-05-04T13:22:08.910Z,9.85
2023-05-04T13:24:36.134Z,10.93
2023-05-04T13:27:04.508Z,10.50
2023-05-04T13:29:31.666Z,6.68
2023-05-04T13:31:59.664Z,12.88
2023-05-04T13:34:26.793Z,11.00
2023-05-04T13:36:53.725Z,7.45
2023-05-04T13:39:22.657Z,8.85
2023-05-04T13:41:49.531Z,11.75
2023-05-04T13:44:17.745Z,13.43
2023-05-04T13:46:44.984Z,12.63
2023-05-04T13:49:11.999Z,6.75
2023-05-04T13:51:38.828Z,8.80
2023-05-04T13:54:05.945Z,7.65
2023-05-04T13:56:32.768Z,7.35
2023-05-04T13:58:59.614Z,10.38
2023-05-04T14:01:28.002Z,6.32
2023-05-04T14:03:54.948Z,10.35
2023-05-04T14:06:21.921Z,7.75
2023-05-04T14:08:48.834Z,9.27
2023-05-04T14:11:15.622Z,11.50
2023-05-04T14:13:42.441Z,7.45
2023-05-04T14:16:09.303Z,10.48
2023-05-04T14:18:37.548Z,10.13
2023-05-04T14:21:04.433Z,8.00
2023-05-04T14:23:31.501Z,10.40
2023-05-04T14:25:58.374Z,6.50
2023-05-04T14:28:26.205Z,9.70
2023-05-04T14:30:53.098Z,13.07
2023-05-04T14:33:21.293Z,7.40
2023-05-04T14:35:49.570Z,12.88
2023-05-04T14:38:16.524Z,11.00
2023-05-04T14:40:43.362Z,5.80
2023-05-04T14:43:10.237Z,9.40
2023-05-04T14:45:37.587Z,7.57
2023-05-04T14:48:09.730Z,4.80
2023-05-04T14:50:36.582Z,6.22
2023-05-04T14:53:04.860Z,5.18
2023-05-04T14:55:33.616Z,7.00
2023-05-04T14:58:00.708Z,6.72
2023-05-04T15:00:27.630Z,5.05
2023-05-04T15:02:54.544Z,4.55
2023-05-04T15:05:21.400Z,4.78
2023-05-04T15:07:48.201Z,4.55
2023-05-04T15:10:16.561Z,5.18
2023-05-04T15:12:43.501Z,13.27
2023-05-04T15:15:12.700Z,8.57
2023-05-04T15:17:39.570Z,6.32
2023-05-04T15:20:08.119Z,6.03
2023-05-04T15:22:35.390Z,4.63
2023-05-04T15:25:02.290Z,5.25
2023-05-04T15:27:30.605Z,7.13
2023-05-04T15:29:57.481Z,4.05
2023-05-04T15:32:24.438Z,3.58
2023-05-04T15:35:03.892Z,4.47
2023-05-04T15:37:32.642Z,7.38
2023-05-04T15:40:01.902Z,5.55
2023-05-04T15:42:30.796Z,7.15
2023-05-04T15:44:57.674Z,5.35
2023-05-04T15:47:24.609Z,5.88
2023-05-04T15:49:52.482Z,4.40
2023-05-04T15:52:19.520Z,4.03
2023-05-04T15:54:47.366Z,5.97
2023-05-04T15:57:15.273Z,7.80
2023-05-04T15:59:43.449Z,4.15
2023-05-04T16:02:10.378Z,5.20
2023-05-04T16:04:37.219Z,4.93
2023-05-04T16:07:04.004Z,5.43
2023-05-04T16:09:31.411Z,5.25
2023-05-04T16:11:58.309Z,8.07
2023-05-04T16:14:25.157Z,6.35
2023-05-04T16:16:53.645Z,8.50
2023-05-04T16:19:20.621Z,4.32
2023-05-04T16:21:47.470Z,4.85
2023-05-04T16:24:14.413Z,6.68
2023-05-04T16:26:41.301Z,9.50
2023-05-04T16:29:08.228Z,5.60
2023-05-04T16:31:35.312Z,6.65
2023-05-04T16:34:03.603Z,6.13
2023-05-04T16:36:31.635Z,13.73
2023-05-04T16:38:58.480Z,6.03
2023-05-04T16:41:25.910Z,5.65
2023-05-04T16:43:52.749Z,7.85
2023-05-04T16:46:19.601Z,7.03
2023-05-04T16:48:46.467Z,5.07
2023-05-04T16:51:14.786Z,6.28
2023-05-04T16:53:42.250Z,5.32
2023-05-04T16:56:16.117Z,6.63
2023-05-04T16:58:42.976Z,7.18
2023-05-04T17:01:11.352Z,6.03
2023-05-04T17:03:38.416Z,8.32
2023-05-04T17:06:05.770Z,13.95
2023-05-04T17:08:34.951Z,10.32
2023-05-04T17:11:01.820Z,11.82
2023-05-04T17:13:28.906Z,11.38
2023-05-04T17:15:55.861Z,8.00
2023-05-04T17:18:22.894Z,12.25
2023-05-04T17:20:49.728Z,6.90
2023-05-04T17:23:16.863Z,8.63
2023-05-04T17:25:46.055Z,9.70
2023-05-04T17:28:13.412Z,8.25
2023-05-04T17:30:40.675Z,6.30
2023-05-04T17:33:07.696Z,18.38
2023-05-04T17:35:34.641Z,8.52
2023-05-04T17:38:01.587Z,7.78
2023-05-04T17:40:28.840Z,7.45
2023-05-04T17:42:57.390Z,7.22
2023-05-04T17:45:24.314Z,11.35
2023-05-04T17:47:51.517Z,9.40
2023-05-04T17:50:18.725Z,7.65
2023-05-04T17:52:45.849Z,6.85
2023-05-04T17:55:12.718Z,8.80
2023-05-04T17:57:39.561Z,9.30
2023-05-04T18:00:09.680Z,9.40
2023-05-04T18:02:36.800Z,10.70
2023-05-04T18:05:04.072Z,12.52
2023-05-04T18:07:30.934Z,8.80
2023-05-04T18:09:57.824Z,9.75
2023-05-04T18:12:24.847Z,10.50
2023-05-04T18:14:54.100Z,9.48
2023-05-04T18:17:22.327Z,9.45
2023-05-04T18:19:49.125Z,8.27
2023-05-04T18:22:16.056Z,10.07
2023-05-04T18:24:42.922Z,10.40
2023-05-04T18:27:09.758Z,8.43
2023-05-04T18:29:36.560Z,10.40
2023-05-04T18:32:08.015Z,18.17
2023-05-04T18:34:36.452Z,21.85
2023-05-04T18:37:03.384Z,13.50
2023-05-04T18:39:30.309Z,14.20
2023-05-04T18:41:57.132Z,11.07
2023-05-04T18:44:24.078Z,9.63
2023-05-04T18:46:50.987Z,11.38
2023-05-04T18:49:18.007Z,8.70
2023-05-04T18:51:46.320Z,8.90
2023-05-04T18:54:15.318Z,17.90
2023-05-04T18:56:42.116Z,11.65
2023-05-04T18:59:10.739Z,16.70
2023-05-04T19:01:37.840Z,11.38
2023-05-04T19:04:04.976Z,9.88
2023-05-04T19:06:32.510Z,10.57
2023-05-04T19:09:01.215Z,9.48
2023-05-04T19:11:29.339Z,11.70
2023-05-04T19:13:56.168Z,13.35
2023-05-04T19:16:23.072Z,11.82
2023-05-04T19:18:49.929Z,12.02
2023-05-04T19:21:16.860Z,10.20
2023-05-04T19:23:43.805Z,10.77
2023-05-04T19:26:12.109Z,16.27
2023-05-04T19:28:40.113Z,11.98
2023-05-04T19:31:07.158Z,19.00
2023-05-04T19:33:47.219Z,17.15
2023-05-04T19:36:15.640Z,13.85
2023-05-04T19:38:42.521Z,11.35
2023-05-04T19:41:09.435Z,10.98
2023-05-04T19:43:38.863Z,29.42
2023-05-04T19:46:05.872Z,13.40
2023-05-04T19:48:32.999Z,14.73
2023-05-04T19:51:00.090Z,18.10
2023-05-04T19:53:27.086Z,16.48
2023-05-04T19:55:54.066Z,16.35
2023-05-04T19:58:22.077Z,22.20
2023-05-04T20:00:50.838Z,17.92
2023-05-04T20:03:18.653Z,23.20
2023-05-04T20:05:45.573Z,19.42
2023-05-04T20:08:12.444Z,18.70
2023-05-04T20:10:39.281Z,19.83
2023-05-04T20:13:06.870Z,30.50
2023-05-04T20:15:33.811Z,16.83
2023-05-04T20:18:02.164Z,17.20
2023-05-04T20:20:29.180Z,17.00
2023-05-04T20:22:56.126Z,14.32
2023-05-04T20:25:23.000Z,17.15
2023-05-04T20:27:52.210Z,17.70
2023-05-04T20:30:19.327Z,22.27
2023-05-04T20:32:47.932Z,18.40
2023-05-04T20:35:17.182Z,18.73
2023-05-04T20:37:44.433Z,20.50
2023-05-04T20:40:12.235Z,16.60
2023-05-04T20:42:39.476Z,17.15
2023-05-04T20:45:07.699Z,19.20
2023-05-04T20:47:34.912Z,19.83
2023-05-04T20:50:01.973Z,18.73
2023-05-04T20:52:30.223Z,17.45
2023-05-04T20:54:57.077Z,18.95
2023-05-04T20:57:24.217Z,22.50
2023-05-04T20:59:51.153Z,18.88
2023-05-04T21:02:17.915Z,27.75
2023-05-04T21:04:47.419Z,16.55
2023-05-04T21:07:14.305Z,22.95
2023-05-04T21:09:42.787Z,17.92
2023-05-04T21:12:09.774Z,17.98
2023-05-04T21:14:36.617Z,19.15
2023-05-04T21:17:03.562Z,28.48
2023-05-04T21:19:30.420Z,20.65
2023-05-04T21:21:57.328Z,20.60
2023-05-04T21:24:24.218Z,17.60
2023-05-04T21:26:52.768Z,11.63
2023-05-04T21:29:19.676Z,17.63
2023-05-04T21:31:46.884Z,6.85
2023-05-04T21:34:13.973Z,12.18
2023-05-04T21:36:41.896Z,9.50
2023-05-04T21:39:09.305Z,9.88
2023-05-04T21:41:36.539Z,10.35
2023-05-04T21:44:04.974Z,8.35
2023-05-04T21:46:32.682Z,12.13
2023-05-04T21:48:59.560Z,20.83
2023-05-04T21:51:27.007Z,7.85
2023-05-04T21:53:53.851Z,5.47
2023-05-04T21:56:21.315Z,7.32
2023-05-04T21:58:48.145Z,5.82
2023-05-04T22:01:19.831Z,9.35
2023-05-04T22:03:46.866Z,8.25
2023-05-04T22:06:13.865Z,7.30
2023-05-04T22:08:40.859Z,6.18
2023-05-04T22:11:07.798Z,10.48
2023-05-04T22:13:34.579Z,11.60
2023-05-04T22:16:01.396Z,13.73
2023-05-04T22:18:29.663Z,15.38
2023-05-04T22:20:56.750Z,6.68
2023-05-04T22:23:23.581Z,7.47
2023-05-04T22:25:50.490Z,7.80
2023-05-04T22:28:17.417Z,8.30
2023-05-04T22:30:44.317Z,13.80
2023-05-04T22:33:11.161Z,13.13
2023-05-04T22:35:39.375Z,8.98
2023-05-04T22:38:06.200Z,7.35
2023-05-04T22:40:33.448Z,7.25
2023-05-04T22:43:00.576Z,11.95
2023-05-04T22:45:27.651Z,7.13
2023-05-04T22:47:54.481Z,12.32
2023-05-04T22:50:21.418Z,5.97
2023-05-04T22:52:49.643Z,6.95
2023-05-04T22:55:16.800Z,7.10
2023-05-04T22:57:43.628Z,14.43
2023-05-04T23:00:12.113Z,9.27
2023-05-04T23:02:39.343Z,4.80
2023-05-04T23:05:07.638Z,4.78
2023-05-04T23:07:34.518Z,7.25
2023-05-04T23:10:03.330Z,12.15
2023-05-04T23:12:30.172Z,10.63
2023-05-04T23:14:57.059Z,6.63
2023-05-04T23:17:24.198Z,5.55
2023-05-04T23:19:51.134Z,6.72
2023-05-04T23:22:18.017Z,12.10
2023-05-04T23:24:44.827Z,12.57
2023-05-04T23:27:13.083Z,7.93
2023-05-04T23:29:39.880Z,9.10
2023-05-04T23:32:06.994Z,12.55
2023-05-04T23:34:34.012Z,8.40
2023-05-04T23:37:01.161Z,10.50
2023-05-04T23:39:28.087Z,9.65
2023-05-04T23:41:54.901Z,10.00
2023-05-04T23:44:23.095Z,9.13
2023-05-04T23:46:49.911Z,26.25
2023-05-04T23:49:17.014Z,11.13
2023-05-04T23:51:43.938Z,14.00
2023-05-04T23:54:10.995Z,10.30
2023-05-04T23:56:37.836Z,12.18
2023-05-04T23:59:04.668Z,15.95
